Latest Coastal Weather Observations for Yanakie

IDV60701

Issued at 6:15 pm EST Wednesday 1 October 2014 (issued every 10 minutes, with the page automatically refreshed every 10 minutes)

About coastal observations | Map of coastal stations | Coastal observations for VIC | Marine services | Other Formats
Station Details ID: 085301 Name: YANAKIE Lat: -38.81 Lon: 146.19 Height: 13.3 m
Data from the previous 72 hours. | See also: Recent months at Yanakie
Date/Time
EST
Temp

°C
Wind Pressure Rain
since 9am
mm
Weather Cloud Vis
km
Sea
Height
m
Swell
Dir
 
Speed
knots
Gust
knots
hPa Trend Height
m
Period
s
Dir
01/06:00pm 11.4 W 16 22 1022.3 - 0.0 - - - - - - -
01/05:30pm 11.9 W 17 22 1022.4 - 0.0 - - - - - - -
01/05:00pm 12.5 W 19 25 1022.3 - 0.0 - - - - - - -
01/04:30pm 12.5 W 19 25 1022.2 - 0.0 - - - - - - -
01/04:00pm 12.4 WSW 16 22 1022.0 - 0.0 - - - - - - -
01/03:30pm 13.1 W 22 28 1022.1 - 0.0 - - - - - - -
01/03:00pm 13.8 WSW 20 27 1022.0 - 0.0 - - - - - - -
01/02:39pm 13.3 W 17 27 1022.0 - 0.0 - - - - - - -
01/02:30pm 13.8 W 19 24 1021.8 - 0.0 - - - - - - -
01/02:00pm 13.8 WSW 18 25 1021.6 - 0.0 - - - - - - -
01/01:30pm 13.8 W 19 26 1021.8 - 0.0 - - - - - - -
01/01:00pm 14.3 WSW 18 23 1022.0 - 0.0 - - - - - - -
01/12:30pm 14.4 WSW 15 20 1022.0 - 0.0 - - - - - - -
01/12:00pm 13.6 WSW 17 22 1022.1 - 0.0 - - - - - - -
01/11:30am 12.0 SSW 13 17 1021.9 - 0.0 - - - - - - -
01/11:00am 13.0 WSW 11 16 1021.9 - 0.0 - - - - - - -
01/10:41am 12.7 WSW 15 25 1021.9 - 0.0 - - - - - - -
01/10:30am 12.1 WSW 11 14 1021.7 - 0.0 - - - - - - -
01/10:16am 13.0 WSW 19 30 1021.7 - 0.0 - - - - - - -
01/10:00am 12.6 WSW 15 22 1021.3 - 0.0 - - - - - - -
01/09:30am 12.5 WSW 16 22 1021.2 - 0.0 - - - - - - -
01/09:00am 11.6 WSW 12 17 1020.7 - 10.2 Recent precip. - - - - - -
01/08:44am 9.0 WSW 18 28 1020.5 - 10.2 - - - - - - -
01/08:30am 8.3 WSW 20 27 1020.4 - 10.2 - - - - - - -
01/08:23am 9.3 WSW 17 27 1020.4 - 10.0 - - - - - - -
01/08:00am 11.7 SW 16 23 1019.4 - 9.8 - - - - - - -
01/07:32am 10.7 SW 19 31 1019.2 - 9.8 - - - - - - -
01/07:30am 10.8 SW 18 25 1019.1 - 9.8 - - - - - - -
01/07:00am 9.0 WSW 16 22 1018.4 - 9.8 - - - - - - -
01/06:38am 9.6 WSW 19 35 1018.3 - 9.6 - - - - - - -
01/06:30am 9.4 WSW 18 26 1017.8 - 9.6 - - - - - - -
01/06:00am 7.9 WSW 26 38 1017.4 - 9.6 Rain - - - - - -
01/05:50am 9.0 WSW 15 28 1017.1 - 9.4 - - - - - - -
01/05:30am 8.6 WSW 18 25 1016.6 - 9.4 - - - - - - -
01/05:05am 10.0 WSW 18 29 1015.8 - 9.2 - - - - - - -
01/05:00am 9.9 WSW 18 27 1015.7 - 9.2 - - - - - - -
01/04:30am 9.6 WSW 21 26 1015.3 - 9.2 - - - - - - -
01/04:14am 9.0 WSW 18 28 1015.0 - 9.2 - - - - - - -
01/04:00am 9.0 WSW 23 30 1014.9 - 9.2 - - - - - - -
01/03:30am 8.1 SW 19 32 1014.4 - 9.2 - - - - - - -
01/03:00am 8.0 WSW 20 31 1013.9 - 8.8 Rain - - - - - -
01/02:43am 8.5 SW 24 35 1013.8 - 8.2 - - - - - - -
01/02:41am 8.8 SW 21 28 1013.6 - 8.2 - - - - - - -
01/02:30am 8.9 W 21 30 1013.3 - 8.2 - - - - - - -
01/02:03am 9.7 WSW 23 33 1012.6 - 8.2 - - - - - - -
01/02:00am 9.3 WSW 22 31 1012.8 - 8.2 - - - - - - -
01/01:44am 9.3 WSW 22 33 1012.7 - 8.2 - - - - - - -
01/01:30am 8.9 WSW 20 28 1012.2 - 8.0 - - - - - - -
01/01:18am 7.9 WSW 26 36 1012.2 - 8.0 - - - - - - -
01/01:14am 8.8 WSW 29 36 1012.3 - 7.8 - - - - - - -
01/01:00am 8.9 W 15 26 1011.9 - 7.8 - - - - - - -
01/12:30am 9.0 W 22 28 1011.6 - 7.8 - - - - - - -
01/12:00am 7.5 W 22 37 1011.6 - 7.8 Rain - - - - - -
 
Date/Time
EST
Temp

°C
Wind Pressure Rain
since 9am
mm
Weather Cloud Vis
km
Sea
Height
m
Swell
Dir
 
Speed
knots
Gust
knots
hPa Trend Height
m
Period
s
Dir
30/11:43pm 7.8 W 26 36 1011.3 - 7.6 - - - - - - -
30/11:39pm 8.0 W 30 36 1011.3 - 7.6 - - - - - - -
30/11:35pm 8.2 W 18 35 1011.3 - 7.6 - - - - - - -
30/11:30pm 8.4 W 17 23 1011.0 - 7.6 - - - - - - -
30/11:00pm 7.6 W 21 32 1011.1 - 7.4 - - - - - - -
30/10:47pm 8.9 W 21 36 1011.2 - 7.2 - - - - - - -
30/10:30pm 8.6 W 20 27 1010.6 - 7.2 - - - - - - -
30/10:26pm 8.6 W 20 27 1010.6 - 7.2 - - - - - - -
30/10:00pm 9.0 W 30 41 1010.5 - 7.2 - - - - - - -
30/09:59pm 9.3 W 32 41 1010.4 - 7.2 - - - - - - -
30/09:57pm 10.0 W 20 37 1010.4 - 7.2 - - - - - - -
30/09:30pm 9.4 W 17 24 1010.0 - 7.2 - - - - - - -
30/09:00pm 9.3 W 16 20 1009.5 - 7.2 Recent precip. - - - - - -
30/08:33pm 11.1 W 24 38 1009.3 - 6.8 - - - - - - -
30/08:30pm 11.2 W 23 31 1009.0 - 6.8 - - - - - - -
30/08:00pm 11.3 W 24 33 1008.7 - 6.8 - - - - - - -
30/07:30pm 11.4 W 23 30 1008.2 - 6.8 - - - - - - -
30/07:14pm 11.2 W 21 31 1008.1 - 6.8 - - - - - - -
30/07:00pm 11.1 W 20 28 1007.8 - 6.8 - - - - - - -
30/06:30pm 10.7 W 13 19 1007.5 - 6.8 - - - - - - -
30/06:00pm 10.3 W 15 22 1007.3 - 6.8 Recent precip. - - - - - -
30/05:30pm 10.0 W 19 30 1006.2 - 6.2 - - - - - - -
30/05:03pm 10.0 W 21 31 1005.6 - 5.4 - - - - - - -
30/05:00pm 10.1 W 23 31 1005.6 - 5.4 - - - - - - -
30/04:36pm 10.0 WSW 30 41 1004.7 - 4.8 - - - - - - -
30/04:30pm 10.1 WSW 27 32 1004.2 - 4.6 - - - - - - -
30/04:00pm 11.3 W 38 51 1002.8 - 3.6 - - - - - - -
30/03:40pm 12.6 W 35 45 1002.0 - 3.4 - - - - - - -
30/03:38pm 12.4 W 36 45 1001.9 - 3.2 - - - - - - -
30/03:30pm 12.6 W 24 37 1001.8 - 3.2 - - - - - - -
30/03:15pm 16.3 W 27 40 1001.3 - 0.0 - - - - - - -
30/03:13pm 18.0 NW 15 26 1000.3 - 0.0 - - - - - - -
30/03:00pm 17.6 NW 17 25 999.7 - 0.0 - - - - - - -
30/02:30pm 20.5 NW 20 29 999.9 - 0.0 - - - - - - -
30/02:00pm 21.1 NW 22 33 1000.4 - 0.0 - - - - - - -
30/01:32pm 21.0 NW 21 33 1000.9 - 0.0 - - - - - - -
30/01:30pm 21.3 NW 20 29 1001.2 - 0.0 - - - - - - -
30/01:00pm 20.0 NW 24 41 1001.6 - 0.0 - - - - - - -
30/12:35pm 21.2 NW 22 33 1002.0 - 0.0 - - - - - - -
30/12:30pm 21.3 NW 22 30 1002.2 - 0.0 - - - - - - -
30/12:00pm 20.7 NW 18 26 1002.5 - 0.0 - - - - - - -
30/11:30am 20.4 NNW 16 21 1003.5 - 0.0 - - - - - - -
30/11:00am 19.9 NW 17 23 1004.3 - 0.0 - - - - - - -
30/10:30am 19.1 NW 18 24 1005.1 - 0.0 - - - - - - -
30/10:01am 18.1 NW 17 28 1005.8 - 0.0 - - - - - - -
30/10:00am 18.3 NW 16 25 1005.9 - 0.0 - - - - - - -
30/09:30am 17.5 NW 14 21 1006.6 - 0.0 - - - - - - -
30/09:00am 16.6 NW 11 16 1007.1 - 0.0 - - - - - - -
30/08:30am 15.8 NNW 10 14 1007.4 - 0.0 - - - - - - -
30/08:00am 14.6 NNW 10 15 1007.8 - 0.0 - - - - - - -
30/07:30am 13.1 WNW 5 9 1008.5 - 0.0 - - - - - - -
30/07:00am 11.5 WSW 3 5 1008.6 - 0.0 - - - - - - -
30/06:30am 9.4 CALM 0 1 1008.4 - 0.0 - - - - - - -
30/06:00am 7.8 WNW 4 4 1008.2 - 0.0 - - - - - - -
30/05:30am 7.6 NNW 2 3 1007.8 - 0.0 - - - - - - -
30/05:00am 7.8 NNW 3 4 1007.8 - 0.0 - - - - - - -
30/04:30am 9.0 N 4 6 1008.0 - 0.0 - - - - - - -
30/04:00am 8.7 N 3 4 1008.1 - 0.0 - - - - - - -
30/03:30am 8.2 N 1 2 1008.2 - 0.0 - - - - - - -
30/03:00am 8.2 CALM 0 2 1008.7 - 0.0 - - - - - - -
30/02:30am 9.2 WNW 1 2 1009.1 - 0.0 - - - - - - -
30/02:00am 9.5 W 2 2 1009.6 - 0.0 - - - - - - -
30/01:30am 9.8 W 3 5 1010.1 - 0.0 - - - - - - -
30/01:00am 10.8 SW 7 8 1010.6 - 0.0 - - - - - - -
30/12:30am 10.2 SW 4 6 1010.8 - 0.0 - - - - - - -
30/12:00am 10.7 SW 6 8 1010.8 - 0.0 - - - - - - -
 
Date/Time
EST
Temp

°C
Wind Pressure Rain
since 9am
mm
Weather Cloud Vis
km
Sea
Height
m
Swell
Dir
 
Speed
knots
Gust
knots
hPa Trend Height
m
Period
s
Dir
29/11:30pm 12.0 NE 4 5 1010.8 - 0.0 - - - - - - -
29/11:00pm 12.3 NE 6 9 1010.9 - 0.0 - - - - - - -
29/10:30pm 12.9 ENE 6 9 1011.1 - 0.0 - - - - - - -
29/10:00pm 13.1 ENE 6 8 1011.4 - 0.0 - - - - - - -
29/09:30pm 13.0 NNE 6 14 1011.7 - 0.0 - - - - - - -
29/09:00pm 10.4 ENE 4 5 1011.8 - 0.0 - - - - - - -
29/08:30pm 9.5 ENE 2 3 1011.8 - 0.0 - - - - - - -
29/08:00pm 9.4 CALM 0 0 1011.7 - 0.0 - - - - - - -
29/07:30pm 10.3 N 1 2 1011.6 - 0.0 - - - - - - -
29/07:00pm 10.8 SW 3 4 1011.2 - 0.0 - - - - - - -
29/06:30pm 11.9 SSW 5 6 1010.7 - 0.0 - - - - - - -
29/06:00pm 14.0 S 3 4 1010.5 - 0.0 - - - - - - -
29/05:30pm 16.0 WSW 6 7 1010.4 - 0.0 - - - - - - -
29/05:00pm 16.9 W 9 12 1010.4 - 0.0 - - - - - - -
29/04:30pm 17.3 WSW 10 13 1010.3 - 0.0 - - - - - - -
29/04:00pm 17.8 WSW 10 14 1010.4 - 0.0 - - - - - - -
29/03:30pm 18.1 WSW 12 15 1010.5 - 0.0 - - - - - - -
29/03:00pm 18.7 W 13 17 1010.7 - 0.0 - - - - - - -
29/02:30pm 18.8 WNW 13 19 1010.8 - 0.0 - - - - - - -
29/02:00pm 18.6 WNW 13 20 1011.0 - 0.0 - - - - - - -
29/01:30pm 18.2 WNW 15 21 1011.2 - 0.0 - - - - - - -
29/01:00pm 18.2 WNW 13 21 1011.8 - 0.0 - - - - - - -
29/12:30pm 18.0 NW 17 24 1011.9 - 0.0 - - - - - - -
29/12:00pm 17.4 WNW 15 21 1012.1 - 0.0 - - - - - - -
29/11:30am 17.0 WNW 15 21 1012.3 - 0.0 - - - - - - -
29/11:00am 16.8 W 14 20 1012.5 - 0.0 - - - - - - -
29/10:30am 16.1 WNW 13 17 1012.6 - 0.0 - - - - - - -
29/10:00am 16.3 WNW 14 20 1012.5 - 0.0 - - - - - - -
29/09:30am 15.8 W 16 22 1012.4 - 0.0 - - - - - - -
29/09:00am 15.2 WNW 13 19 1012.5 - 0.6 - - - - - - -
29/08:30am 14.0 WNW 13 19 1012.3 - 0.6 - - - - - - -
29/08:00am 14.1 WNW 11 16 1012.0 - 0.6 - - - - - - -
29/07:30am 12.8 W 9 13 1011.9 - 0.6 - - - - - - -
29/07:00am 13.2 WNW 8 11 1011.5 - 0.6 - - - - - - -
29/06:30am 12.4 WNW 10 14 1011.0 - 0.6 - - - - - - -
29/06:00am 12.6 WNW 14 21 1010.4 - 0.6 - - - - - - -
29/05:30am 12.3 WNW 13 16 1009.8 - 0.6 - - - - - - -
29/05:00am 11.9 NW 12 18 1009.4 - 0.6 - - - - - - -
29/04:30am 12.3 NW 11 16 1008.9 - 0.6 - - - - - - -
29/04:00am 11.8 NW 12 17 1008.7 - 0.6 - - - - - - -
29/03:30am 11.7 WNW 11 14 1008.3 - 0.6 - - - - - - -
29/03:00am 12.1 NW 10 15 1007.9 - 0.6 Recent precip. - - - - - -
29/02:30am 12.8 WNW 11 15 1008.2 - 0.6 - - - - - - -
29/02:00am 12.8 WNW 8 12 1008.1 - 0.4 - - - - - - -
29/01:30am 13.4 WNW 8 12 1008.2 - 0.4 - - - - - - -
29/01:00am 13.4 W 10 13 1007.9 - 0.4 - - - - - - -
29/12:30am 13.7 W 5 7 1007.0 - 0.0 - - - - - - -
29/12:00am 13.8 W 6 9 1007.1 - 0.0 - - - - - - -
 
Date/Time
EST
Temp

°C
Wind Pressure Rain
since 9am
mm
Weather Cloud Vis
km
Sea
Height
m
Swell
Dir
 
Speed
knots
Gust
knots
hPa Trend Height
m
Period
s
Dir
28/11:30pm 14.5 W 8 12 1006.9 - 0.0 - - - - - - -
28/11:00pm 14.8 W 6 8 1006.1 - 0.0 - - - - - - -
28/10:30pm 15.0 WSW 9 11 1005.6 - 0.0 - - - - - - -
28/10:00pm 15.2 WSW 9 12 1005.4 - 0.0 - - - - - - -
28/09:30pm 15.5 W 6 8 1005.3 - 0.0 - - - - - - -
28/09:28pm 15.8 WSW 6 8 1005.2 - 0.0 - - - - - - -
28/09:00pm 20.9 WNW 11 16 1004.8 - 0.0 - - - - - - -
28/08:30pm 19.9 NW 8 10 1004.5 - 0.0 - - - - - - -
28/08:00pm 21.2 NNW 9 14 1003.7 - 0.0 - - - - - - -
28/07:30pm 20.9 N 10 13 1002.9 - 0.0 - - - - - - -
28/07:00pm 20.3 N 9 12 1002.9 - 0.0 - - - - - - -
28/06:30pm 21.7 N 12 16 1002.9 - 0.0 - - - - - - -

Other Formats:

Comma delimited format used in spreadsheet applications
http://www.bom.gov.au/fwo/IDV60701/IDV60701.94911.axf

JavaScript Object Notation format (JSON) in row-major order
http://www.bom.gov.au/fwo/IDV60701/IDV60701.94911.json